createdAt,value
2022-11-27T00:01:13.829Z,5.24
2022-11-27T00:03:41.300Z,5.26
2022-11-27T00:06:11.721Z,5.27
2022-11-27T00:08:38.209Z,5.29
2022-11-27T00:11:09.803Z,5.29
2022-11-27T00:13:36.475Z,5.29
2022-11-27T00:16:04.546Z,5.29
2022-11-27T00:18:31.183Z,5.30
2022-11-27T00:21:06.007Z,5.29
2022-11-27T00:23:33.533Z,5.29
2022-11-27T00:26:00.226Z,5.30
2022-11-27T00:28:26.890Z,5.28
2022-11-27T00:30:53.406Z,5.25
2022-11-27T00:33:19.927Z,5.24
2022-11-27T00:35:46.592Z,5.22
2022-11-27T00:38:13.066Z,5.18
2022-11-27T00:40:39.598Z,5.16
2022-11-27T00:43:06.153Z,5.14
2022-11-27T00:45:32.561Z,5.10
2022-11-27T00:47:59.077Z,5.05
2022-11-27T00:50:25.645Z,5.05
2022-11-27T00:52:52.117Z,5.06
2022-11-27T00:55:18.752Z,5.04
2022-11-27T00:57:45.284Z,5.03
2022-11-27T01:00:12.585Z,5.00
2022-11-27T01:02:39.055Z,5.00
2022-11-27T01:05:05.999Z,4.98
2022-11-27T01:07:32.693Z,4.93
2022-11-27T01:09:59.347Z,4.93
2022-11-27T01:12:25.822Z,4.93
2022-11-27T01:14:52.341Z,4.91
2022-11-27T01:17:18.811Z,4.88
2022-11-27T01:19:45.284Z,4.90
2022-11-27T01:22:11.770Z,4.89
2022-11-27T01:24:38.600Z,4.88
2022-11-27T01:27:05.746Z,4.86
2022-11-27T01:29:32.199Z,4.86
2022-11-27T01:31:58.660Z,4.89
2022-11-27T01:34:25.111Z,4.91
2022-11-27T01:36:51.748Z,4.95
2022-11-27T01:39:20.116Z,4.98
2022-11-27T01:41:48.234Z,4.99
2022-11-27T01:44:23.507Z,5.00
2022-11-27T01:47:07.333Z,5.00
2022-11-27T01:49:39.568Z,5.03
2022-11-27T01:52:16.972Z,5.01
2022-11-27T01:54:52.473Z,5.02
2022-11-27T01:57:28.892Z,5.02
2022-11-27T01:59:58.069Z,5.05
2022-11-27T02:02:24.613Z,5.04
2022-11-27T02:04:51.400Z,5.04
2022-11-27T02:07:18.026Z,5.03
2022-11-27T02:09:44.721Z,5.02
2022-11-27T02:12:41.635Z,5.04
2022-11-27T02:15:20.319Z,5.03
2022-11-27T02:17:59.119Z,5.03
2022-11-27T02:20:51.443Z,5.01
2022-11-27T02:23:42.709Z,5.02
2022-11-27T02:26:32.433Z,5.00
2022-11-27T02:29:05.924Z,4.98
2022-11-27T02:32:05.980Z,4.95
2022-11-27T02:34:53.762Z,4.94
2022-11-27T02:37:20.171Z,4.94
2022-11-27T02:40:07.021Z,4.95
2022-11-27T02:42:45.999Z,4.97
2022-11-27T02:45:23.651Z,4.99
2022-11-27T02:47:50.765Z,5.00
2022-11-27T02:50:21.956Z,5.01
2022-11-27T02:52:50.435Z,5.01
2022-11-27T02:55:21.653Z,5.02
2022-11-27T02:57:50.963Z,5.04
2022-11-27T03:00:18.075Z,5.03
2022-11-27T03:02:50.003Z,5.06
2022-11-27T03:05:20.457Z,5.06
2022-11-27T03:07:54.219Z,5.08
2022-11-27T03:10:36.249Z,5.06
2022-11-27T03:13:03.431Z,5.04
2022-11-27T03:15:45.457Z,5.04
2022-11-27T03:18:47.775Z,5.03
2022-11-27T03:21:36.531Z,5.04
2022-11-27T03:24:03.536Z,5.04
2022-11-27T03:26:31.216Z,5.04
2022-11-27T03:29:01.069Z,5.03
2022-11-27T03:31:28.114Z,5.04
2022-11-27T03:33:55.051Z,5.05
2022-11-27T03:36:22.110Z,5.05
2022-11-27T03:38:51.289Z,5.03
2022-11-27T03:41:25.060Z,5.03
2022-11-27T03:44:17.393Z,5.02
2022-11-27T03:46:49.658Z,5.00
2022-11-27T03:49:35.287Z,5.00
2022-11-27T03:52:12.948Z,4.96
2022-11-27T03:54:56.602Z,4.97
2022-11-27T03:57:38.048Z,4.95
2022-11-27T04:00:08.251Z,4.94
2022-11-27T04:02:47.591Z,4.95
2022-11-27T04:05:15.040Z,4.96
2022-11-27T04:07:42.124Z,4.95
2022-11-27T04:10:09.779Z,4.96
2022-11-27T04:12:36.306Z,4.94
2022-11-27T04:15:03.181Z,4.94
2022-11-27T04:17:29.646Z,4.94
2022-11-27T04:19:56.049Z,4.94
2022-11-27T04:22:22.777Z,4.92
2022-11-27T04:24:49.272Z,4.92
2022-11-27T04:27:15.990Z,4.90
2022-11-27T04:29:42.547Z,4.90
2022-11-27T04:32:09.190Z,4.90
2022-11-27T04:34:35.725Z,4.92
2022-11-27T04:37:02.292Z,4.93
2022-11-27T04:39:28.813Z,4.93
2022-11-27T04:41:55.240Z,4.93
2022-11-27T04:44:22.808Z,4.93
2022-11-27T04:46:50.039Z,4.91
2022-11-27T04:49:16.695Z,4.91
2022-11-27T04:51:43.410Z,4.90
2022-11-27T04:54:09.871Z,4.90
2022-11-27T04:56:36.324Z,4.89
2022-11-27T04:59:02.790Z,4.91
2022-11-27T05:01:29.368Z,4.92
2022-11-27T05:03:55.875Z,4.92
2022-11-27T05:06:22.801Z,4.92
2022-11-27T05:08:49.720Z,4.91
2022-11-27T05:11:17.635Z,4.93
2022-11-27T05:13:45.037Z,4.94
2022-11-27T05:16:12.628Z,4.95
2022-11-27T05:18:39.131Z,4.96
2022-11-27T05:21:08.007Z,4.95
2022-11-27T05:23:35.464Z,4.97
2022-11-27T05:26:03.388Z,4.97
2022-11-27T05:28:30.002Z,5.00
2022-11-27T05:30:56.602Z,5.02
2022-11-27T05:33:23.222Z,5.01
2022-11-27T05:35:49.668Z,5.02
2022-11-27T05:38:16.185Z,5.02
2022-11-27T05:40:42.652Z,5.04
2022-11-27T05:43:09.116Z,5.08
2022-11-27T05:45:37.735Z,5.08
2022-11-27T05:48:04.408Z,5.08
2022-11-27T05:50:31.012Z,5.10
2022-11-27T05:52:57.483Z,5.09
2022-11-27T05:55:24.026Z,5.12
2022-11-27T05:57:50.555Z,5.11
2022-11-27T06:00:17.474Z,5.13
2022-11-27T06:02:44.009Z,5.12
2022-11-27T06:05:10.618Z,5.11
2022-11-27T06:07:37.177Z,5.12
2022-11-27T06:10:04.148Z,5.12
2022-11-27T06:12:32.144Z,5.11
2022-11-27T06:14:58.642Z,5.10
2022-11-27T06:17:25.106Z,5.11
2022-11-27T06:19:51.749Z,5.12
2022-11-27T06:22:18.182Z,5.11
2022-11-27T06:24:44.627Z,5.10
2022-11-27T06:27:11.048Z,5.11
2022-11-27T06:29:38.332Z,5.11
2022-11-27T06:32:05.694Z,5.10
2022-11-27T06:34:32.320Z,5.10
2022-11-27T06:36:58.792Z,5.09
2022-11-27T06:39:25.426Z,5.09
2022-11-27T06:41:51.926Z,5.08
2022-11-27T06:44:18.508Z,5.09
2022-11-27T06:46:44.953Z,5.08
2022-11-27T06:49:11.434Z,5.09
2022-11-27T06:51:38.207Z,5.09
2022-11-27T06:54:04.809Z,5.09
2022-11-27T06:56:32.331Z,5.10
2022-11-27T06:59:00.526Z,5.10
2022-11-27T07:01:29.208Z,5.10
2022-11-27T07:03:56.304Z,5.11
2022-11-27T07:06:25.112Z,5.11
2022-11-27T07:08:53.083Z,5.12
2022-11-27T07:11:22.511Z,5.13
2022-11-27T07:13:50.743Z,5.12
2022-11-27T07:16:18.481Z,5.14
2022-11-27T07:18:51.116Z,5.14
2022-11-27T07:21:18.078Z,5.13
2022-11-27T07:23:45.239Z,5.14
2022-11-27T07:26:14.859Z,5.14
2022-11-27T07:28:43.810Z,5.14
2022-11-27T07:31:11.725Z,5.13
2022-11-27T07:33:38.400Z,5.11
2022-11-27T07:36:08.170Z,5.12
2022-11-27T07:38:35.032Z,5.13
2022-11-27T07:41:03.368Z,5.14
2022-11-27T07:43:31.388Z,5.11
2022-11-27T07:45:58.042Z,5.15
2022-11-27T07:48:25.254Z,5.13
2022-11-27T07:50:51.726Z,5.14
2022-11-27T07:53:18.300Z,5.14
2022-11-27T07:55:44.822Z,5.14
2022-11-27T07:58:11.508Z,5.15
2022-11-27T08:00:38.464Z,5.16
2022-11-27T08:03:05.306Z,5.18
2022-11-27T08:05:35.529Z,5.20
2022-11-27T08:11:52.487Z,5.24
2022-11-27T08:14:19.476Z,5.25
2022-11-27T08:16:46.196Z,5.26
2022-11-27T08:19:13.324Z,5.30
2022-11-27T08:21:40.030Z,5.31
2022-11-27T08:24:06.884Z,5.31
2022-11-27T08:26:33.539Z,5.32
2022-11-27T08:29:00.047Z,5.35
2022-11-27T08:31:26.687Z,5.36
2022-11-27T08:33:53.213Z,5.37
2022-11-27T08:36:19.845Z,5.39
2022-11-27T08:38:47.033Z,5.43
2022-11-27T08:41:14.295Z,5.44
2022-11-27T08:43:40.776Z,5.45
2022-11-27T08:46:07.851Z,5.45
2022-11-27T08:48:35.088Z,5.46
2022-11-27T08:51:07.150Z,5.48
2022-11-27T08:53:34.023Z,5.49
2022-11-27T08:56:19.322Z,5.51
2022-11-27T08:58:46.580Z,5.52
2022-11-27T09:01:20.296Z,5.54
2022-11-27T09:03:47.904Z,5.56
2022-11-27T09:06:17.105Z,5.58
2022-11-27T09:08:44.853Z,5.60
2022-11-27T09:11:12.940Z,5.60
2022-11-27T09:13:40.472Z,5.62
2022-11-27T09:16:13.366Z,5.64
2022-11-27T09:18:40.647Z,5.67
2022-11-27T09:21:09.731Z,5.70
2022-11-27T09:23:37.724Z,5.72
2022-11-27T09:26:07.020Z,5.76
2022-11-27T09:28:34.281Z,5.79
2022-11-27T09:31:02.661Z,5.82
2022-11-27T09:33:31.455Z,5.84
2022-11-27T09:36:03.092Z,5.86
2022-11-27T09:38:29.645Z,5.88
2022-11-27T09:41:07.087Z,5.92
2022-11-27T09:43:41.367Z,5.93
2022-11-27T09:46:17.676Z,5.98
2022-11-27T09:48:49.220Z,5.99
2022-11-27T09:51:25.918Z,6.01
2022-11-27T09:54:00.649Z,6.05
2022-11-27T09:56:27.821Z,6.11
2022-11-27T09:58:59.440Z,6.17
2022-11-27T10:01:38.446Z,6.22
2022-11-27T10:04:15.287Z,6.24
2022-11-27T10:07:06.828Z,6.23
2022-11-27T10:09:54.868Z,6.26
2022-11-27T10:12:44.843Z,6.29
2022-11-27T10:15:25.060Z,6.31
2022-11-27T10:18:04.586Z,6.36
2022-11-27T10:20:37.250Z,6.38
2022-11-27T10:23:10.140Z,6.39
2022-11-27T10:25:52.215Z,6.42
2022-11-27T10:28:37.769Z,6.45
2022-11-27T10:31:21.384Z,6.51
2022-11-27T10:33:54.756Z,6.49
2022-11-27T10:36:29.300Z,6.51
2022-11-27T10:38:58.176Z,6.54
2022-11-27T10:44:30.117Z,6.56
2022-11-27T10:47:02.571Z,6.57
2022-11-27T10:49:29.233Z,6.60
2022-11-27T10:51:55.753Z,6.65
2022-11-27T10:54:27.950Z,6.70
2022-11-27T10:57:27.990Z,6.78
2022-11-27T11:00:15.729Z,6.82
2022-11-27T11:02:42.507Z,6.86
2022-11-27T11:05:50.965Z,6.87
2022-11-27T11:08:16.602Z,6.90
2022-11-27T11:10:57.314Z,6.92
2022-11-27T11:13:27.925Z,6.95
2022-11-27T11:15:55.904Z,6.99
2022-11-27T11:18:26.368Z,7.02
2022-11-27T11:27:47.192Z,7.14
2022-11-27T11:38:04.899Z,7.45
2022-11-27T11:45:01.382Z,7.49
2022-11-27T11:47:28.082Z,7.53
2022-11-27T11:49:56.450Z,7.52
2022-11-27T11:52:45.845Z,7.54
2022-11-27T11:55:19.951Z,7.53
2022-11-27T11:57:58.557Z,7.52
2022-11-27T12:04:22.180Z,7.44
2022-11-27T12:11:18.332Z,7.50
2022-11-27T12:13:57.791Z,7.53
2022-11-27T12:17:02.865Z,7.59
2022-11-27T12:19:58.026Z,7.64
2022-11-27T12:22:45.928Z,7.67
2022-11-27T12:25:32.716Z,7.68
2022-11-27T12:28:19.877Z,7.69
2022-11-27T12:30:52.252Z,7.66
2022-11-27T12:33:19.185Z,7.66
2022-11-27T12:36:14.917Z,7.66
2022-11-27T12:39:00.996Z,7.61
2022-11-27T12:41:48.802Z,7.58
2022-11-27T12:44:45.130Z,7.58
2022-11-27T12:47:29.775Z,7.53
2022-11-27T12:50:02.943Z,7.49
2022-11-27T12:52:34.597Z,7.49
2022-11-27T12:55:06.960Z,7.50
2022-11-27T12:57:42.002Z,7.52
2022-11-27T13:00:16.548Z,7.54
2022-11-27T13:03:08.375Z,7.55
2022-11-27T13:05:58.038Z,7.52
2022-11-27T13:08:31.657Z,7.49
2022-11-27T13:11:06.792Z,7.47
2022-11-27T13:13:43.327Z,7.47
2022-11-27T13:16:18.933Z,7.44
2022-11-27T13:18:51.906Z,7.40
2022-11-27T13:21:31.288Z,7.37
2022-11-27T13:24:01.296Z,7.37
2022-11-27T13:29:39.686Z,7.30
2022-11-27T13:32:07.994Z,7.29
2022-11-27T13:34:44.321Z,7.28
2022-11-27T13:37:32.792Z,7.26
2022-11-27T13:40:07.942Z,7.25
2022-11-27T13:42:36.895Z,7.23
2022-11-27T13:45:11.102Z,7.24
2022-11-27T13:47:43.736Z,7.20
2022-11-27T13:50:17.939Z,7.17
2022-11-27T13:52:57.217Z,7.14
2022-11-27T13:55:35.997Z,7.12
2022-11-27T13:58:04.152Z,7.07
2022-11-27T14:00:43.971Z,7.04
2022-11-27T14:08:03.158Z,6.98
2022-11-27T14:14:42.109Z,6.96
2022-11-27T14:20:57.940Z,6.88
2022-11-27T14:23:36.571Z,6.87
2022-11-27T14:26:15.752Z,6.85
2022-11-27T14:28:45.334Z,6.86
2022-11-27T14:31:33.404Z,6.87
2022-11-27T14:34:23.174Z,6.85
2022-11-27T14:36:52.109Z,6.85
2022-11-27T14:39:29.345Z,6.83
2022-11-27T14:42:04.152Z,6.82
2022-11-27T14:44:31.636Z,6.81
2022-11-27T14:47:02.437Z,6.80
2022-11-27T14:49:30.624Z,6.79
2022-11-27T14:52:02.112Z,6.78
2022-11-27T14:54:32.599Z,6.78
2022-11-27T14:56:59.155Z,6.74
2022-11-27T14:59:26.092Z,6.71
2022-11-27T15:02:14.086Z,6.72
2022-11-27T15:04:42.522Z,6.70
2022-11-27T15:07:28.052Z,6.70
2022-11-27T15:09:57.440Z,6.67
2022-11-27T15:12:28.460Z,6.66
2022-11-27T15:15:20.195Z,6.66
2022-11-27T15:17:51.633Z,6.66
2022-11-27T15:20:39.370Z,6.65
2022-11-27T15:23:17.533Z,6.62
2022-11-27T15:25:50.256Z,6.62
2022-11-27T15:28:41.324Z,6.60
2022-11-27T15:31:31.504Z,6.60
2022-11-27T15:34:30.045Z,6.59
2022-11-27T15:36:59.649Z,6.59
2022-11-27T15:39:38.969Z,6.59
2022-11-27T15:42:09.816Z,6.59
2022-11-27T15:44:36.587Z,6.57
2022-11-27T15:47:04.567Z,6.57
2022-11-27T15:49:31.167Z,6.58
2022-11-27T15:51:57.904Z,6.59
2022-11-27T15:54:25.292Z,6.59
2022-11-27T15:56:51.845Z,6.59
2022-11-27T15:59:20.774Z,6.59
2022-11-27T16:01:48.123Z,6.59
2022-11-27T16:04:14.664Z,6.61
2022-11-27T16:06:41.325Z,6.61
2022-11-27T16:09:07.882Z,6.62
2022-11-27T16:11:34.405Z,6.63
2022-11-27T16:14:00.994Z,6.61
2022-11-27T16:16:27.528Z,6.63
2022-11-27T16:19:01.636Z,6.64
2022-11-27T16:21:30.057Z,6.63
2022-11-27T16:24:01.196Z,6.64
2022-11-27T16:26:28.189Z,6.64
2022-11-27T16:28:55.243Z,6.65
2022-11-27T16:31:22.384Z,6.66
2022-11-27T16:33:49.157Z,6.66
2022-11-27T16:36:18.316Z,6.67
2022-11-27T16:38:45.477Z,6.67
2022-11-27T16:41:17.528Z,6.67
2022-11-27T16:43:46.819Z,6.67
2022-11-27T16:46:16.188Z,6.67
2022-11-27T16:48:44.411Z,6.69
2022-11-27T16:51:17.914Z,6.68
2022-11-27T16:53:47.635Z,6.69
2022-11-27T16:56:17.423Z,6.68
2022-11-27T16:58:45.796Z,6.67
2022-11-27T17:01:15.617Z,6.67
2022-11-27T17:03:42.707Z,6.67
2022-11-27T17:06:26.333Z,6.67
2022-11-27T17:08:57.509Z,6.65
2022-11-27T17:11:26.544Z,6.67
2022-11-27T17:13:56.145Z,6.67
2022-11-27T17:16:24.481Z,6.66
2022-11-27T17:18:53.751Z,6.65
2022-11-27T17:21:27.338Z,6.65
2022-11-27T17:23:59.394Z,6.65
2022-11-27T17:26:29.312Z,6.64
2022-11-27T17:28:56.498Z,6.65
2022-11-27T17:31:40.507Z,6.65
2022-11-27T17:34:07.967Z,6.63
2022-11-27T17:36:37.438Z,6.62
2022-11-27T17:39:05.649Z,6.62
2022-11-27T17:41:32.446Z,6.61
2022-11-27T17:43:59.110Z,6.61
2022-11-27T17:46:27.420Z,6.61
2022-11-27T17:48:55.495Z,6.60
2022-11-27T17:51:22.354Z,6.58
2022-11-27T17:53:49.068Z,6.57
2022-11-27T17:56:19.209Z,6.56
2022-11-27T17:58:46.361Z,6.58
2022-11-27T18:01:28.415Z,6.56
2022-11-27T18:03:57.162Z,6.56
2022-11-27T18:06:23.730Z,6.56
2022-11-27T18:08:50.297Z,6.53
2022-11-27T18:11:17.912Z,6.53
2022-11-27T18:13:44.637Z,6.53
2022-11-27T18:16:14.277Z,6.53
2022-11-27T18:18:41.365Z,6.51
2022-11-27T18:21:15.285Z,6.49
2022-11-27T18:24:14.414Z,6.50
2022-11-27T18:26:52.363Z,6.48
2022-11-27T18:29:18.245Z,6.48
2022-11-27T18:31:45.913Z,6.47
2022-11-27T18:34:12.480Z,6.46
2022-11-27T18:36:38.967Z,6.44
2022-11-27T18:39:05.558Z,6.43
2022-11-27T18:41:32.216Z,6.42
2022-11-27T18:43:58.757Z,6.41
2022-11-27T18:46:25.427Z,6.40
2022-11-27T18:48:52.207Z,6.41
2022-11-27T18:51:24.492Z,6.39
2022-11-27T18:53:51.585Z,6.37
2022-11-27T18:56:29.399Z,6.37
2022-11-27T18:59:00.117Z,6.37
2022-11-27T19:01:30.181Z,6.35
2022-11-27T19:03:59.617Z,6.35
2022-11-27T19:06:26.580Z,6.34
2022-11-27T19:08:53.088Z,6.35
2022-11-27T19:11:24.540Z,6.35
2022-11-27T19:13:54.426Z,6.35
2022-11-27T19:16:27.326Z,6.35
2022-11-27T19:18:56.891Z,6.35
2022-11-27T19:21:26.570Z,6.34
2022-11-27T19:23:53.545Z,6.33
2022-11-27T19:26:22.951Z,6.31
2022-11-27T19:28:54.577Z,6.31
2022-11-27T19:31:22.757Z,6.29
2022-11-27T19:33:54.192Z,6.29
2022-11-27T19:36:34.188Z,6.28
2022-11-27T19:39:04.506Z,6.28
2022-11-27T19:41:31.440Z,6.27
2022-11-27T19:44:00.337Z,6.27
2022-11-27T19:46:30.038Z,6.25
2022-11-27T19:48:59.049Z,6.26
2022-11-27T19:51:27.085Z,6.24
2022-11-27T19:53:53.784Z,6.24
2022-11-27T19:56:20.536Z,6.23
2022-11-27T19:58:47.131Z,6.23
2022-11-27T20:01:18.240Z,6.22
2022-11-27T20:03:46.143Z,6.21
2022-11-27T20:06:15.891Z,6.20
2022-11-27T20:08:43.400Z,6.21
2022-11-27T20:11:13.112Z,6.21
2022-11-27T20:13:39.813Z,6.20
2022-11-27T20:16:11.436Z,6.20
2022-11-27T20:18:38.738Z,6.18
2022-11-27T20:21:07.028Z,6.17
2022-11-27T20:23:33.702Z,6.18
2022-11-27T20:26:00.550Z,6.18
2022-11-27T20:28:27.056Z,6.20
2022-11-27T20:30:58.618Z,6.19
2022-11-27T20:33:25.786Z,6.18
2022-11-27T20:35:52.510Z,6.16
2022-11-27T20:38:19.063Z,6.17
2022-11-27T20:40:45.725Z,6.16
2022-11-27T20:43:12.432Z,6.16
2022-11-27T20:45:40.618Z,6.15
2022-11-27T20:48:08.840Z,6.15
2022-11-27T20:50:37.057Z,6.14
2022-11-27T20:53:04.178Z,6.13
2022-11-27T20:55:30.831Z,6.12
2022-11-27T20:57:57.535Z,6.12
2022-11-27T21:00:24.329Z,6.13
2022-11-27T21:02:50.885Z,6.13
2022-11-27T21:05:17.591Z,6.14
2022-11-27T21:07:44.072Z,6.12
2022-11-27T21:10:13.904Z,6.11
2022-11-27T21:12:40.771Z,6.11
2022-11-27T21:15:08.255Z,6.11
2022-11-27T21:17:35.143Z,6.11
2022-11-27T21:20:01.784Z,6.11
2022-11-27T21:22:28.872Z,6.10
2022-11-27T21:24:55.328Z,6.11
2022-11-27T21:27:22.078Z,6.10
2022-11-27T21:29:48.797Z,6.12
2022-11-27T21:32:17.912Z,6.13
2022-11-27T21:34:44.629Z,6.14
2022-11-27T21:37:11.251Z,6.12
2022-11-27T21:39:38.454Z,6.12
2022-11-27T21:42:05.029Z,6.11
2022-11-27T21:44:31.471Z,6.10
2022-11-27T21:46:59.878Z,6.12
2022-11-27T21:49:26.496Z,6.13
2022-11-27T21:51:53.908Z,6.14
2022-11-27T21:54:20.595Z,6.14
2022-11-27T21:56:50.613Z,6.13
2022-11-27T21:59:17.183Z,6.14
2022-11-27T22:01:45.499Z,6.14
2022-11-27T22:04:12.217Z,6.13
2022-11-27T22:06:40.909Z,6.14
2022-11-27T22:09:13.584Z,6.14
2022-11-27T22:11:41.951Z,6.14
2022-11-27T22:14:09.061Z,6.14
2022-11-27T22:16:44.458Z,6.16
2022-11-27T22:19:12.305Z,6.17
2022-11-27T22:21:38.771Z,6.16
2022-11-27T22:24:05.479Z,6.17
2022-11-27T22:26:32.025Z,6.19
2022-11-27T22:28:59.240Z,6.18
2022-11-27T22:31:31.215Z,6.18
2022-11-27T22:33:57.932Z,6.18
2022-11-27T22:36:32.501Z,6.17
2022-11-27T22:39:02.251Z,6.18
2022-11-27T22:41:30.958Z,6.19
2022-11-27T22:44:00.226Z,6.19
2022-11-27T22:46:32.385Z,6.17
2022-11-27T22:49:01.126Z,6.17
2022-11-27T22:51:29.720Z,6.18
2022-11-27T22:53:56.233Z,6.20
2022-11-27T22:56:22.952Z,6.17
2022-11-27T22:58:52.760Z,6.18
2022-11-27T23:01:26.061Z,6.20
2022-11-27T23:03:53.305Z,6.22
2022-11-27T23:06:22.238Z,6.20
2022-11-27T23:08:50.050Z,6.22
2022-11-27T23:11:22.137Z,6.22
2022-11-27T23:13:50.014Z,6.23
2022-11-27T23:16:17.291Z,6.24
2022-11-27T23:18:43.931Z,6.27
2022-11-27T23:21:16.601Z,6.25
2022-11-27T23:23:43.832Z,6.27
2022-11-27T23:26:17.898Z,6.27
2022-11-27T23:28:45.512Z,6.29
2022-11-27T23:31:29.466Z,6.29
2022-11-27T23:33:57.522Z,6.30
2022-11-27T23:36:24.354Z,6.29
2022-11-27T23:38:50.847Z,6.31
2022-11-27T23:41:25.054Z,6.29
2022-11-27T23:43:52.948Z,6.31
2022-11-27T23:46:21.942Z,6.32
2022-11-27T23:48:48.796Z,6.32
2022-11-27T23:51:21.056Z,6.32
2022-11-27T23:53:48.191Z,6.33
2022-11-27T23:56:17.859Z,6.34
2022-11-27T23:58:47.309Z,6.36
